createdAt,value
2018-12-19T00:00:23.827Z,16.87
2018-12-19T00:02:53.429Z,17.90
2018-12-19T00:05:22.576Z,18.43
2018-12-19T00:07:51.874Z,18.07
2018-12-19T00:10:22.297Z,18.13
2018-12-19T00:12:51.566Z,18.13
2018-12-19T00:15:20.829Z,17.43
2018-12-19T00:17:50.057Z,17.57
2018-12-19T00:20:19.267Z,17.80
2018-12-19T00:22:48.433Z,18.23
2018-12-19T00:25:17.550Z,17.57
2018-12-19T00:27:46.692Z,17.43
2018-12-19T00:30:15.846Z,18.40
2018-12-19T00:32:44.988Z,18.43
2018-12-19T00:35:14.162Z,18.53
2018-12-19T00:37:43.362Z,17.77
2018-12-19T00:40:12.938Z,18.37
2018-12-19T00:42:42.139Z,17.60
2018-12-19T00:45:12.546Z,18.63
2018-12-19T00:47:41.732Z,18.30
2018-12-19T00:50:10.871Z,18.43
2018-12-19T00:52:40.026Z,19.73
2018-12-19T00:55:09.235Z,18.53
2018-12-19T00:57:41.148Z,18.10
2018-12-19T01:00:10.724Z,17.27
2018-12-19T01:02:39.841Z,17.87
2018-12-19T01:05:09.086Z,16.70
2018-12-19T01:07:38.249Z,17.13
2018-12-19T01:10:07.388Z,17.10
2018-12-19T01:12:36.579Z,17.47
2018-12-19T01:15:06.216Z,18.03
2018-12-19T01:17:35.431Z,17.90
2018-12-19T01:20:04.822Z,17.50
2018-12-19T01:22:34.240Z,18.20
2018-12-19T01:25:03.635Z,18.07
2018-12-19T01:27:32.883Z,18.57
2018-12-19T01:30:02.061Z,19.97
2018-12-19T01:32:31.610Z,18.67
2018-12-19T01:35:00.910Z,20.47
2018-12-19T01:37:30.109Z,20.67
2018-12-19T01:39:59.329Z,19.70
2018-12-19T01:42:28.502Z,21.00
2018-12-19T01:44:57.712Z,20.90
2018-12-19T01:47:26.876Z,21.90
2018-12-19T01:49:56.056Z,21.23
2018-12-19T01:52:25.190Z,21.47
2018-12-19T01:54:54.315Z,21.40
2018-12-19T01:57:23.457Z,19.23
2018-12-19T01:59:52.672Z,21.40
2018-12-19T02:02:21.847Z,21.93
2018-12-19T02:04:50.985Z,21.00
2018-12-19T02:07:20.204Z,20.60
2018-12-19T02:09:49.401Z,20.53
2018-12-19T02:12:18.534Z,20.20
2018-12-19T02:14:47.824Z,20.90
2018-12-19T02:17:16.985Z,21.00
2018-12-19T02:19:46.262Z,20.70
2018-12-19T02:22:15.386Z,20.70
2018-12-19T02:24:44.543Z,22.03
2018-12-19T02:27:13.782Z,20.77
2018-12-19T02:29:43.396Z,20.87
2018-12-19T02:32:12.565Z,21.17
2018-12-19T02:34:41.883Z,21.40
2018-12-19T02:37:11.162Z,21.53
2018-12-19T02:39:40.366Z,21.97
2018-12-19T02:42:10.088Z,20.73
2018-12-19T02:44:39.633Z,21.23
2018-12-19T02:47:08.801Z,20.43
2018-12-19T02:49:37.945Z,21.33
2018-12-19T02:52:07.137Z,22.60
2018-12-19T02:54:36.287Z,22.73
2018-12-19T02:57:05.487Z,22.80
2018-12-19T02:59:34.663Z,23.10
2018-12-19T03:02:05.567Z,22.73
2018-12-19T03:04:34.885Z,22.40
2018-12-19T03:07:04.116Z,23.27
2018-12-19T03:09:33.280Z,23.67
2018-12-19T03:12:02.440Z,22.93
2018-12-19T03:14:31.557Z,21.07
2018-12-19T03:17:00.685Z,22.53
2018-12-19T03:19:29.818Z,22.80
2018-12-19T03:21:58.952Z,24.03
2018-12-19T03:24:28.102Z,22.80
2018-12-19T03:26:57.252Z,22.10
2018-12-19T03:29:26.394Z,23.53
2018-12-19T03:31:55.522Z,22.90
2018-12-19T03:34:24.690Z,23.27
2018-12-19T03:36:53.839Z,23.10
2018-12-19T03:39:23.048Z,24.23
2018-12-19T03:41:52.192Z,23.77
2018-12-19T03:44:24.703Z,23.40
2018-12-19T03:46:53.847Z,24.57
2018-12-19T03:49:22.962Z,24.30
2018-12-19T03:51:52.157Z,24.07
2018-12-19T03:54:21.518Z,24.90
2018-12-19T03:56:51.054Z,24.00
2018-12-19T03:59:20.247Z,24.77
2018-12-19T04:01:49.417Z,24.97
2018-12-19T04:04:18.591Z,25.07
2018-12-19T04:06:47.758Z,24.63
2018-12-19T04:09:16.896Z,23.53
2018-12-19T04:11:46.031Z,23.03
2018-12-19T04:14:15.149Z,24.27
2018-12-19T04:16:44.331Z,25.23
2018-12-19T04:19:13.446Z,23.77
2018-12-19T04:21:42.608Z,23.73
2018-12-19T04:24:11.791Z,22.23
2018-12-19T04:26:41.009Z,25.83
2018-12-19T04:29:10.213Z,24.23
2018-12-19T04:31:39.353Z,24.30
2018-12-19T04:34:08.512Z,24.77
2018-12-19T04:36:37.784Z,24.33
2018-12-19T04:39:06.936Z,23.63
2018-12-19T04:41:36.073Z,25.27
2018-12-19T04:44:05.205Z,24.20
2018-12-19T04:46:34.329Z,24.13
2018-12-19T04:49:03.585Z,23.57
2018-12-19T04:51:32.691Z,25.33
2018-12-19T04:54:01.931Z,23.83
2018-12-19T04:56:31.084Z,24.90
2018-12-19T04:59:00.206Z,24.63
2018-12-19T05:01:29.397Z,24.77
2018-12-19T05:03:58.577Z,24.77
2018-12-19T05:06:27.676Z,24.53
2018-12-19T05:08:56.866Z,24.07
2018-12-19T05:11:26.032Z,25.17
2018-12-19T05:13:55.237Z,26.00
2018-12-19T05:16:24.436Z,25.50
2018-12-19T05:18:53.675Z,24.60
2018-12-19T05:21:22.871Z,24.97
2018-12-19T05:23:52.192Z,24.70
2018-12-19T05:26:24.735Z,23.23
2018-12-19T05:28:53.875Z,25.00
2018-12-19T05:31:23.124Z,24.40
2018-12-19T05:33:52.361Z,24.90
2018-12-19T05:36:21.539Z,24.00
2018-12-19T05:38:51.597Z,25.90
2018-12-19T05:41:20.798Z,24.40
2018-12-19T05:43:49.984Z,24.77
2018-12-19T05:46:19.249Z,26.23
2018-12-19T05:48:48.385Z,24.60
2018-12-19T05:51:17.638Z,23.37
2018-12-19T05:53:46.783Z,25.03
2018-12-19T05:56:15.952Z,23.77
2018-12-19T05:58:45.105Z,23.10
2018-12-19T06:01:14.300Z,26.03
2018-12-19T06:03:43.583Z,24.60
2018-12-19T06:06:12.733Z,25.33
2018-12-19T06:08:42.249Z,24.50
2018-12-19T06:11:11.381Z,24.10
2018-12-19T06:13:40.571Z,24.00
2018-12-19T06:16:09.880Z,24.83
2018-12-19T06:18:39.201Z,26.00
2018-12-19T06:21:11.288Z,27.07
2018-12-19T06:23:40.404Z,24.37
2018-12-19T06:26:09.660Z,25.33
2018-12-19T06:28:38.861Z,24.73
2018-12-19T06:31:08.035Z,26.17
2018-12-19T06:33:37.816Z,25.50
2018-12-19T06:36:06.971Z,26.67
2018-12-19T06:38:36.159Z,27.30
2018-12-19T06:41:05.487Z,25.90
2018-12-19T06:43:34.646Z,27.40
2018-12-19T06:46:03.806Z,26.53
2018-12-19T06:48:32.992Z,27.07
2018-12-19T06:51:02.155Z,27.37
2018-12-19T06:53:35.318Z,26.77
2018-12-19T06:56:04.520Z,26.97
2018-12-19T06:58:33.695Z,27.27
2018-12-19T07:01:02.824Z,27.47
2018-12-19T07:03:31.969Z,27.40
2018-12-19T07:06:01.135Z,27.37
2018-12-19T07:08:30.259Z,26.03
2018-12-19T07:10:59.586Z,26.93
2018-12-19T07:13:28.673Z,26.87
2018-12-19T07:15:57.839Z,27.97
2018-12-19T07:18:27.090Z,27.20
2018-12-19T07:20:56.358Z,26.67
2018-12-19T07:23:25.460Z,26.73
2018-12-19T07:25:54.938Z,27.20
2018-12-19T07:28:24.098Z,27.20
2018-12-19T07:30:53.263Z,26.10
2018-12-19T07:33:22.732Z,27.77
2018-12-19T07:35:51.894Z,27.07
2018-12-19T07:38:21.003Z,26.67
2018-12-19T07:40:50.159Z,26.97
2018-12-19T07:43:19.836Z,27.43
2018-12-19T07:45:54.899Z,25.83
2018-12-19T07:48:24.494Z,26.87
2018-12-19T07:50:53.671Z,25.70
2018-12-19T07:53:22.839Z,26.70
2018-12-19T07:55:52.384Z,26.80
2018-12-19T07:58:21.761Z,25.03
2018-12-19T08:00:50.881Z,26.47
2018-12-19T08:03:20.306Z,25.07
2018-12-19T08:05:49.433Z,25.70
2018-12-19T08:08:18.577Z,23.57
2018-12-19T08:10:52.152Z,25.30
2018-12-19T08:13:18.942Z,25.67
2018-12-19T08:15:48.047Z,25.50
2018-12-19T08:18:17.188Z,26.27
2018-12-19T08:20:46.354Z,26.60
2018-12-19T08:23:15.516Z,26.33
2018-12-19T08:25:44.655Z,26.23
2018-12-19T08:28:13.823Z,25.20
2018-12-19T08:30:42.971Z,25.80
2018-12-19T08:33:12.195Z,24.90
2018-12-19T08:35:41.392Z,25.57
2018-12-19T08:38:10.564Z,24.80
2018-12-19T08:40:39.755Z,24.10
2018-12-19T08:43:09.007Z,24.80
2018-12-19T08:45:38.913Z,24.60
2018-12-19T08:48:08.055Z,23.63
2018-12-19T08:50:37.206Z,25.33
2018-12-19T08:53:06.610Z,27.37
2018-12-19T08:55:35.850Z,24.53
2018-12-19T08:58:04.995Z,24.50
2018-12-19T09:00:34.174Z,24.57
2018-12-19T09:03:03.389Z,23.93
2018-12-19T09:05:32.531Z,25.83
2018-12-19T09:08:01.647Z,24.43
2018-12-19T09:10:34.233Z,24.50
2018-12-19T09:13:03.477Z,24.50
2018-12-19T09:15:38.113Z,24.20
2018-12-19T09:18:07.227Z,23.27
2018-12-19T09:20:36.383Z,24.80
2018-12-19T09:23:05.500Z,23.07
2018-12-19T09:25:34.645Z,24.47
2018-12-19T09:28:04.791Z,24.70
2018-12-19T09:30:33.896Z,24.37
2018-12-19T09:33:03.140Z,25.53
2018-12-19T09:35:32.279Z,25.47
2018-12-19T09:38:01.512Z,23.10
2018-12-19T09:40:30.603Z,24.07
2018-12-19T09:42:59.773Z,24.97
2018-12-19T09:45:31.438Z,22.00
2018-12-19T09:48:00.587Z,22.47
2018-12-19T09:50:29.690Z,23.10
2018-12-19T09:52:58.987Z,24.07
2018-12-19T09:55:28.432Z,23.13
2018-12-19T09:57:57.565Z,24.00
2018-12-19T10:00:28.007Z,23.87
2018-12-19T10:02:57.305Z,23.17
2018-12-19T10:05:26.550Z,24.93
2018-12-19T10:07:55.718Z,23.17
2018-12-19T10:10:24.841Z,23.57
2018-12-19T10:12:54.067Z,23.33
2018-12-19T10:15:23.209Z,24.07
2018-12-19T10:17:52.510Z,24.00
2018-12-19T10:20:21.796Z,22.87
2018-12-19T10:22:52.957Z,22.80
2018-12-19T10:25:22.756Z,23.40
2018-12-19T10:27:51.946Z,23.60
2018-12-19T10:30:21.120Z,22.87
2018-12-19T10:32:52.312Z,23.07
2018-12-19T10:35:21.570Z,21.83
2018-12-19T10:37:50.893Z,23.07
2018-12-19T10:40:20.087Z,22.77
2018-12-19T10:42:49.366Z,21.57
2018-12-19T10:45:18.670Z,23.50
2018-12-19T10:47:47.834Z,22.77
2018-12-19T10:50:17.081Z,21.40
2018-12-19T10:52:46.278Z,23.83
2018-12-19T10:55:18.763Z,23.30
2018-12-19T10:57:47.926Z,23.77
2018-12-19T11:00:22.684Z,24.00
2018-12-19T11:02:51.852Z,23.57
2018-12-19T11:05:21.054Z,24.07
2018-12-19T11:07:50.414Z,23.57
2018-12-19T11:10:19.881Z,23.43
2018-12-19T11:12:49.030Z,24.73
2018-12-19T11:15:18.152Z,24.70
2018-12-19T11:17:47.473Z,25.60
2018-12-19T11:20:16.779Z,25.30
2018-12-19T11:22:46.050Z,23.97
2018-12-19T11:25:15.362Z,25.83
2018-12-19T11:27:44.525Z,24.37
2018-12-19T11:30:14.256Z,26.83
2018-12-19T11:32:43.453Z,25.67
2018-12-19T11:35:12.769Z,26.47
2018-12-19T11:37:41.977Z,26.73
2018-12-19T11:40:11.180Z,26.47
2018-12-19T11:42:40.746Z,27.03
2018-12-19T11:45:10.188Z,28.70
2018-12-19T11:47:39.387Z,28.23
2018-12-19T11:50:08.792Z,27.80
2018-12-19T11:52:37.994Z,28.57
2018-12-19T11:55:07.283Z,29.90
2018-12-19T11:57:36.766Z,28.40
2018-12-19T12:00:07.807Z,28.47
2018-12-19T12:02:37.031Z,29.17
2018-12-19T12:05:06.401Z,29.23
2018-12-19T12:07:35.817Z,29.80
2018-12-19T12:10:06.657Z,27.80
2018-12-19T12:12:35.830Z,30.93
2018-12-19T12:15:05.993Z,28.90
2018-12-19T12:17:35.246Z,30.13
2018-12-19T12:20:05.717Z,30.57
2018-12-19T12:22:34.855Z,29.93
2018-12-19T12:25:05.099Z,32.40
2018-12-19T12:27:34.353Z,29.87
2018-12-19T12:30:05.120Z,28.47
2018-12-19T12:32:34.597Z,29.23
2018-12-19T12:35:04.902Z,30.83
2018-12-19T12:37:34.073Z,30.77
2018-12-19T12:40:04.572Z,34.13
2018-12-19T12:42:33.766Z,30.77
2018-12-19T12:45:03.416Z,31.67
2018-12-19T12:47:32.670Z,31.53
2018-12-19T12:50:01.822Z,31.47
2018-12-19T12:52:31.001Z,27.93
2018-12-19T12:55:00.316Z,28.20
2018-12-19T12:57:29.508Z,29.57
2018-12-19T12:59:58.661Z,29.00
2018-12-19T13:02:27.841Z,31.03
2018-12-19T13:04:57.036Z,29.73
2018-12-19T13:07:26.211Z,30.53
2018-12-19T13:09:55.438Z,29.50
2018-12-19T13:12:24.552Z,29.73
2018-12-19T13:14:53.752Z,31.17
2018-12-19T13:17:22.913Z,30.57
2018-12-19T13:19:52.070Z,30.10
2018-12-19T13:22:21.267Z,30.13
2018-12-19T13:24:50.441Z,29.90
2018-12-19T13:27:19.641Z,29.87
2018-12-19T13:29:48.789Z,28.63
2018-12-19T13:32:18.339Z,27.83
2018-12-19T13:34:47.552Z,28.83
2018-12-19T13:37:16.713Z,28.90
2018-12-19T13:39:46.057Z,29.00
2018-12-19T13:42:15.179Z,28.63
2018-12-19T13:44:44.382Z,29.73
2018-12-19T13:47:13.511Z,28.00
2018-12-19T13:49:42.699Z,28.30
2018-12-19T13:52:12.013Z,28.70
2018-12-19T13:54:41.205Z,28.43
2018-12-19T13:57:10.429Z,27.37
2018-12-19T13:59:39.973Z,28.13
2018-12-19T14:02:09.161Z,28.23
2018-12-19T14:04:38.599Z,28.10
2018-12-19T14:07:08.354Z,29.30
2018-12-19T14:09:37.802Z,28.13
2018-12-19T14:12:12.239Z,26.90
2018-12-19T14:14:38.214Z,27.93
2018-12-19T14:17:07.487Z,27.57
2018-12-19T14:19:36.615Z,28.67
2018-12-19T14:22:05.814Z,29.47
2018-12-19T14:24:35.693Z,27.17
2018-12-19T14:27:04.895Z,28.97
2018-12-19T14:29:34.090Z,26.63
2018-12-19T14:32:03.230Z,28.20
2018-12-19T14:34:32.395Z,28.23
2018-12-19T14:37:01.683Z,27.17
2018-12-19T14:39:30.827Z,28.37
2018-12-19T14:42:00.037Z,27.57
2018-12-19T14:44:29.203Z,28.30
2018-12-19T14:46:58.349Z,28.03
2018-12-19T14:49:27.496Z,28.43
2018-12-19T14:51:56.675Z,28.23
2018-12-19T14:54:25.862Z,29.57
2018-12-19T14:56:54.993Z,29.93
2018-12-19T14:59:24.167Z,28.47
2018-12-19T15:01:53.336Z,29.07
2018-12-19T15:04:22.513Z,28.47
2018-12-19T15:06:51.722Z,29.57
2018-12-19T15:09:20.986Z,29.57
2018-12-19T15:11:50.100Z,30.40
2018-12-19T15:14:19.252Z,29.27
2018-12-19T15:16:48.454Z,29.10
2018-12-19T15:19:17.674Z,28.07
2018-12-19T15:21:46.844Z,31.07
2018-12-19T15:24:16.021Z,30.23
2018-12-19T15:26:45.267Z,30.33
2018-12-19T15:29:14.426Z,29.87
2018-12-19T15:31:43.580Z,29.97
2018-12-19T15:34:12.782Z,28.57
2018-12-19T15:36:45.384Z,31.67
2018-12-19T15:39:14.535Z,31.60
2018-12-19T15:41:43.732Z,32.07
2018-12-19T15:44:12.913Z,33.60
2018-12-19T15:46:42.031Z,31.83
2018-12-19T15:49:11.276Z,31.67
2018-12-19T15:51:40.491Z,31.77
2018-12-19T15:54:09.703Z,33.60
2018-12-19T15:56:38.861Z,32.23
2018-12-19T15:59:08.008Z,31.90
2018-12-19T16:01:37.199Z,31.63
2018-12-19T16:04:06.336Z,32.50
2018-12-19T16:06:35.683Z,33.93
2018-12-19T16:09:05.926Z,34.23
2018-12-19T16:11:35.067Z,34.10
2018-12-19T16:14:04.318Z,32.93
2018-12-19T16:16:33.923Z,34.03
2018-12-19T16:19:03.267Z,37.00
2018-12-19T16:21:32.459Z,35.77
2018-12-19T16:24:01.964Z,34.37
2018-12-19T16:26:31.174Z,35.50
2018-12-19T16:29:00.383Z,36.20
2018-12-19T16:31:32.547Z,35.43
2018-12-19T16:34:01.878Z,37.93
2018-12-19T16:36:31.044Z,37.57
2018-12-19T16:39:00.233Z,38.40
2018-12-19T16:41:29.412Z,36.70
2018-12-19T16:43:58.625Z,35.40
2018-12-19T16:46:28.031Z,35.43
2018-12-19T16:48:57.218Z,37.13
2018-12-19T16:51:26.404Z,36.37
2018-12-19T16:53:55.598Z,37.03
2018-12-19T16:56:24.807Z,38.00
2018-12-19T16:58:54.259Z,36.53
2018-12-19T17:01:23.830Z,36.73
2018-12-19T17:03:53.068Z,34.70
2018-12-19T17:06:22.242Z,36.07
2018-12-19T17:08:51.404Z,37.43
2018-12-19T17:11:20.746Z,35.57
2018-12-19T17:13:49.933Z,35.97
2018-12-19T17:16:19.245Z,36.53
2018-12-19T17:18:48.426Z,35.27
2018-12-19T17:21:17.521Z,34.00
2018-12-19T17:23:46.661Z,33.47
2018-12-19T17:26:15.831Z,35.70
2018-12-19T17:28:44.998Z,37.43
2018-12-19T17:31:14.114Z,39.43
2018-12-19T17:33:43.315Z,34.80
2018-12-19T17:36:12.556Z,36.67
2018-12-19T17:38:41.743Z,34.73
2018-12-19T17:41:11.040Z,36.20
2018-12-19T17:43:40.251Z,35.33
2018-12-19T17:46:10.146Z,35.37
2018-12-19T17:48:39.341Z,35.70
2018-12-19T17:51:08.493Z,35.60
2018-12-19T17:53:37.659Z,36.37
2018-12-19T17:56:06.944Z,36.07
2018-12-19T17:58:36.149Z,39.17
2018-12-19T18:01:05.398Z,37.73
2018-12-19T18:03:34.529Z,36.60
2018-12-19T18:06:05.012Z,37.60
2018-12-19T18:08:34.142Z,38.40
2018-12-19T18:11:03.436Z,37.93
2018-12-19T18:13:32.583Z,40.17
2018-12-19T18:16:01.780Z,43.97
2018-12-19T18:21:35.924Z,41.17
2018-12-19T18:24:05.186Z,43.17
2018-12-19T18:26:34.358Z,41.23
2018-12-19T18:29:03.525Z,38.47
2018-12-19T18:31:32.782Z,40.27
2018-12-19T18:34:01.980Z,40.53
2018-12-19T18:36:31.156Z,40.83
2018-12-19T18:39:00.810Z,40.97
2018-12-19T18:41:30.048Z,42.63
2018-12-19T18:43:59.290Z,45.13
2018-12-19T18:46:28.496Z,44.70
2018-12-19T18:48:57.702Z,45.63
2018-12-19T18:51:27.006Z,44.43
2018-12-19T18:53:56.290Z,42.80
2018-12-19T18:56:25.710Z,43.67
2018-12-19T18:58:54.962Z,41.63
2018-12-19T19:01:24.394Z,39.53
2018-12-19T19:03:53.760Z,44.90
2018-12-19T19:06:23.245Z,42.03
2018-12-19T19:08:52.551Z,39.20
2018-12-19T19:11:24.925Z,39.30
2018-12-19T19:13:54.298Z,41.50
2018-12-19T19:16:23.485Z,39.87
2018-12-19T19:18:52.902Z,40.27
2018-12-19T19:21:22.191Z,40.73
2018-12-19T19:23:51.526Z,40.67
2018-12-19T19:26:20.680Z,39.90
2018-12-19T19:29:04.737Z,40.07
2018-12-19T19:31:33.968Z,39.33
2018-12-19T19:34:03.271Z,39.00
2018-12-19T19:36:32.848Z,38.40
2018-12-19T19:39:02.042Z,37.73
2018-12-19T19:41:31.305Z,36.67
2018-12-19T19:44:00.494Z,40.23
2018-12-19T19:46:29.654Z,39.07
2018-12-19T19:48:58.890Z,39.97
2018-12-19T19:51:28.081Z,37.63
2018-12-19T19:53:57.444Z,35.77
2018-12-19T19:56:26.613Z,39.37
2018-12-19T19:58:55.828Z,38.63
2018-12-19T20:01:25.144Z,38.50
2018-12-19T20:03:54.699Z,37.50
2018-12-19T20:06:23.811Z,37.17
2018-12-19T20:08:52.973Z,37.87
2018-12-19T20:11:22.101Z,34.13
2018-12-19T20:13:51.222Z,42.40
2018-12-19T20:16:20.497Z,36.63
2018-12-19T20:18:50.081Z,37.77
2018-12-19T20:21:19.218Z,33.90
2018-12-19T20:23:48.401Z,33.70
2018-12-19T20:26:17.630Z,33.93
2018-12-19T20:28:46.706Z,33.77
2018-12-19T20:31:15.872Z,35.03
2018-12-19T20:33:44.987Z,35.00
2018-12-19T20:36:14.122Z,33.93
2018-12-19T20:38:43.496Z,34.73
2018-12-19T20:41:12.635Z,35.37
2018-12-19T20:43:41.897Z,34.70
2018-12-19T20:46:11.083Z,35.90
2018-12-19T20:48:40.259Z,33.27
2018-12-19T20:51:09.441Z,32.23
2018-12-19T20:53:38.606Z,33.33
2018-12-19T20:56:07.903Z,33.13
2018-12-19T20:58:37.074Z,33.77
2018-12-19T21:01:06.204Z,33.50
2018-12-19T21:03:35.299Z,35.23
2018-12-19T21:06:04.454Z,33.67
2018-12-19T21:08:33.648Z,33.17
2018-12-19T21:11:02.920Z,33.23
2018-12-19T21:13:32.116Z,32.00
2018-12-19T21:16:01.322Z,32.30
2018-12-19T21:18:35.903Z,32.87
2018-12-19T21:21:05.036Z,33.73
2018-12-19T21:23:34.543Z,33.70
2018-12-19T21:26:03.834Z,33.17
2018-12-19T21:28:32.987Z,32.93
2018-12-19T21:31:02.129Z,33.70
2018-12-19T21:33:31.379Z,35.67
2018-12-19T21:36:00.478Z,33.63
2018-12-19T21:38:29.634Z,34.77
2018-12-19T21:40:58.824Z,35.77
2018-12-19T21:43:27.964Z,35.90
2018-12-19T21:45:57.094Z,35.37
2018-12-19T21:48:26.184Z,37.70
2018-12-19T21:50:55.311Z,36.37
2018-12-19T21:53:24.453Z,36.50
2018-12-19T21:55:53.554Z,36.00
2018-12-19T21:58:22.764Z,36.57
2018-12-19T22:00:52.005Z,36.33
2018-12-19T22:03:22.001Z,37.17
2018-12-19T22:05:51.183Z,36.13
2018-12-19T22:08:20.474Z,36.80
2018-12-19T22:10:49.687Z,36.40
2018-12-19T22:13:18.874Z,37.57
2018-12-19T22:15:48.088Z,38.00
2018-12-19T22:18:24.955Z,37.93
2018-12-19T22:20:54.286Z,37.83
2018-12-19T22:23:23.365Z,37.13
2018-12-19T22:25:52.534Z,35.57
2018-12-19T22:28:21.645Z,37.83
2018-12-19T22:30:50.760Z,38.57
2018-12-19T22:33:19.903Z,38.63
2018-12-19T22:35:49.023Z,40.40
2018-12-19T22:38:18.117Z,38.00
2018-12-19T22:40:47.291Z,37.80
2018-12-19T22:43:16.582Z,38.73
2018-12-19T22:45:45.831Z,39.53
2018-12-19T22:48:15.023Z,40.83
2018-12-19T22:50:46.879Z,37.07
2018-12-19T22:53:16.059Z,37.93
2018-12-19T22:55:45.215Z,38.03
2018-12-19T22:58:14.551Z,38.80
2018-12-19T23:00:49.592Z,38.20
2018-12-19T23:03:18.716Z,39.90
2018-12-19T23:05:50.858Z,39.80
2018-12-19T23:08:20.063Z,40.60
2018-12-19T23:10:49.311Z,40.07
2018-12-19T23:13:18.608Z,40.87
2018-12-19T23:15:47.800Z,40.13
2018-12-19T23:18:22.481Z,42.63
2018-12-19T23:20:51.664Z,39.87
2018-12-19T23:23:20.898Z,40.23
2018-12-19T23:25:50.036Z,42.13
2018-12-19T23:28:19.274Z,41.40
2018-12-19T23:30:48.407Z,41.37
2018-12-19T23:33:17.626Z,43.03
2018-12-19T23:35:46.725Z,41.50
2018-12-19T23:38:15.868Z,41.47
2018-12-19T23:40:45.025Z,41.93
2018-12-19T23:43:14.189Z,42.50
2018-12-19T23:45:43.350Z,41.83
2018-12-19T23:48:12.620Z,41.03
2018-12-19T23:50:41.772Z,39.90
2018-12-19T23:53:11.102Z,42.07
2018-12-19T23:55:40.245Z,39.97
2018-12-19T23:58:09.390Z,40.30
